Time;durP1;ratioP1;P1;durP2;ratioP2;P2;SDS_P1;SDS_P2;PMS_P1;PMS_P2;Temp;Humidity;BMP_temperature;BMP_pressure;BME280_temperature;BME280_humidity;BME280_pressure;Samples;Min_cycle;Max_cycle;Signal;HPM_P1;HPM_P2
2021/04/08 00:02:01;;;;;;;1.00;1.00;;;5.40;99.90;;;;;;5055148;28;20213;-75
2021/04/08 00:04:27;;;;;;;0.57;0.57;;;5.40;99.90;;;;;;5053865;28;20592;-75
2021/04/08 00:06:53;;;;;;;0.65;0.65;;;5.40;99.90;;;;;;5054862;28;20187;-75
2021/04/08 00:09:19;;;;;;;0.40;0.40;;;5.40;99.90;;;;;;5053603;28;20253;-75
2021/04/08 00:11:44;;;;;;;0.52;0.52;;;5.30;99.90;;;;;;5054881;28;20187;-75
2021/04/08 00:14:11;;;;;;;0.80;0.60;;;5.30;99.90;;;;;;5053641;28;20175;-75
2021/04/08 00:16:36;;;;;;;0.30;0.30;;;5.10;99.90;;;;;;5055008;28;20585;-76
2021/04/08 00:19:08;;;;;;;0.55;0.55;;;4.90;99.90;;;;;;5054833;28;20216;-75
2021/04/08 00:21:33;;;;;;;0.30;0.30;;;5.10;99.90;;;;;;5055037;28;20175;-75
2021/04/08 00:24:00;;;;;;;1.13;0.95;;;5.10;99.90;;;;;;5054694;28;20297;-75
2021/04/08 00:26:25;;;;;;;0.45;0.45;;;5.30;99.90;;;;;;5054685;28;20191;-75
2021/04/08 00:28:51;;;;;;;0.50;0.50;;;5.20;99.90;;;;;;5053317;28;20206;-75
2021/04/08 00:31:16;;;;;;;0.70;0.70;;;5.20;99.90;;;;;;5054633;28;20202;-75
2021/04/08 00:33:42;;;;;;;0.60;0.60;;;5.10;99.90;;;;;;5054484;28;20622;-74
2021/04/08 00:36:08;;;;;;;0.20;0.20;;;5.10;99.90;;;;;;5054463;28;20271;-75
2021/04/08 00:38:33;;;;;;;0.68;0.68;;;5.10;99.90;;;;;;5054444;28;20195;-75
2021/04/08 00:40:59;;;;;;;1.10;1.10;;;5.10;99.90;;;;;;5054432;28;20171;-75
2021/04/08 00:43:25;;;;;;;0.30;0.30;;;5.20;99.90;;;;;;5068836;23;20308;-76
2021/04/08 00:45:50;;;;;;;0.75;0.75;;;5.30;99.90;;;;;;5053949;28;20646;-75
2021/04/08 00:48:16;;;;;;;2.72;0.93;;;5.10;99.90;;;;;;5052777;28;20249;-76
2021/04/08 00:50:41;;;;;;;0.68;0.55;;;5.00;99.90;;;;;;5054106;28;20238;-76
2021/04/08 00:53:10;;;;;;;0.55;0.55;;;5.10;99.90;;;;;;5053794;28;20166;-76
2021/04/08 00:55:38;;;;;;;1.38;0.70;;;5.20;99.90;;;;;;5053868;28;20527;-77
2021/04/08 00:58:05;;;;;;;0.40;0.40;;;5.40;99.90;;;;;;5054101;28;20167;-76
2021/04/08 01:00:32;;;;;;;0.30;0.30;;;5.70;99.90;;;;;;5054181;28;20160;-76
2021/04/08 01:02:59;;;;;;;0.50;0.50;;;5.50;99.90;;;;;;5054053;28;20175;-76
2021/04/08 01:05:25;;;;;;;0.50;0.50;;;5.40;99.90;;;;;;5054025;28;20155;-76
2021/04/08 01:07:51;;;;;;;0.88;0.88;;;5.40;99.90;;;;;;5053900;28;20531;-75
2021/04/08 01:10:19;;;;;;;0.30;0.30;;;5.80;99.90;;;;;;5053809;28;20206;-75
2021/04/08 01:12:46;;;;;;;0.47;0.47;;;5.80;99.90;;;;;;5054029;28;20167;-77
2021/04/08 01:15:12;;;;;;;1.48;0.77;;;5.90;99.90;;;;;;5053715;28;20159;-76
2021/04/08 01:18:02;;;;;;;0.68;0.65;;;5.90;99.90;;;;;;5053708;28;20163;-76
2021/04/08 01:20:46;;;;;;;0.32;0.32;;;5.90;99.90;;;;;;5053720;28;20178;-76
2021/04/08 01:23:49;;;;;;;0.52;0.52;;;5.70;99.90;;;;;;5053677;28;20171;-76
2021/04/08 01:26:51;;;;;;;0.30;0.30;;;5.40;99.90;;;;;;5053624;28;20187;-76
2021/04/08 01:29:55;;;;;;;0.30;0.30;;;5.60;99.90;;;;;;5053497;28;20193;-76
2021/04/08 01:32:25;;;;;;;0.82;0.82;;;5.80;99.90;;;;;;5052745;28;20183;-76
2021/04/08 01:34:52;;;;;;;1.15;1.05;;;5.60;99.90;;;;;;5052192;28;20554;-76
2021/04/08 01:37:26;;;;;;;0.40;0.40;;;5.40;99.90;;;;;;5053372;28;20187;-76
2021/04/08 01:39:53;;;;;;;0.40;0.40;;;5.30;99.90;;;;;;5053346;28;20603;-75
2021/04/08 01:42:20;;;;;;;0.65;0.65;;;5.50;99.90;;;;;;5053177;28;20252;-76
2021/04/08 01:44:47;;;;;;;1.00;1.00;;;5.40;99.90;;;;;;5053174;28;20725;-76
2021/04/08 01:47:14;;;;;;;0.60;0.60;;;5.40;99.90;;;;;;5053138;28;20183;-76
2021/04/08 01:49:43;;;;;;;0.60;0.60;;;5.60;99.90;;;;;;5053107;28;20696;-75
2021/04/08 01:52:13;;;;;;;0.40;0.40;;;5.60;99.90;;;;;;5053306;28;20147;-76
2021/04/08 01:54:42;;;;;;;0.40;0.40;;;5.90;99.90;;;;;;5053256;28;20167;-76
2021/04/08 01:57:12;;;;;;;0.82;0.82;;;6.10;99.90;;;;;;5053076;28;20179;-76
2021/04/08 01:59:40;;;;;;;0.60;0.60;;;6.00;99.90;;;;;;5053355;28;20175;-76
2021/04/08 02:02:06;;;;;;;0.77;0.77;;;6.00;99.90;;;;;;5053117;28;20158;-76
2021/04/08 02:04:33;;;;;;;0.50;0.50;;;5.90;99.90;;;;;;5052951;28;20529;-76
2021/04/08 02:07:01;;;;;;;1.88;1.45;;;6.00;99.90;;;;;;5052907;28;20187;-76
2021/04/08 02:09:27;;;;;;;0.50;0.50;;;5.60;99.90;;;;;;5051620;28;20195;-77
2021/04/08 02:11:54;;;;;;;0.57;0.57;;;5.70;99.90;;;;;;5051669;28;20171;-77
2021/04/08 02:14:20;;;;;;;0.43;0.43;;;5.80;99.90;;;;;;5052953;28;20167;-78
2021/04/08 02:16:48;;;;;;;0.65;0.65;;;5.60;99.90;;;;;;5052850;28;20183;-76
2021/04/08 02:19:16;;;;;;;9.38;1.77;;;5.50;99.90;;;;;;5052849;28;20177;-77
2021/04/08 02:21:42;;;;;;;0.60;0.60;;;5.60;99.90;;;;;;5052940;28;20232;-78
2021/04/08 02:24:10;;;;;;;0.52;0.52;;;5.30;99.90;;;;;;5052966;28;20167;-75
2021/04/08 02:26:39;;;;;;;0.55;0.55;;;5.40;99.90;;;;;;5052810;28;20253;-78
2021/04/08 02:29:06;;;;;;;0.60;0.60;;;5.20;99.90;;;;;;5053107;28;20199;-77
2021/04/08 02:31:36;;;;;;;0.50;0.50;;;5.30;99.90;;;;;;5052834;28;20168;-76
2021/04/08 02:34:01;;;;;;;0.45;0.45;;;5.40;99.90;;;;;;5052841;28;20160;-78
2021/04/08 02:36:27;;;;;;;0.50;0.50;;;5.50;99.90;;;;;;5051439;28;20198;-78
2021/04/08 02:38:52;;;;;;;0.30;0.30;;;5.30;99.90;;;;;;5052811;28;20151;-77
2021/04/08 02:41:19;;;;;;;0.77;0.77;;;5.40;99.90;;;;;;5052761;28;20527;-77
2021/04/08 02:43:44;;;;;;;0.55;0.55;;;5.20;99.90;;;;;;5052424;28;20223;-77
2021/04/08 02:46:10;;;;;;;1.70;1.27;;;5.30;99.90;;;;;;5052554;28;20191;-77
2021/04/08 02:48:35;;;;;;;0.20;0.20;;;5.20;99.90;;;;;;5052659;28;20163;-76
2021/04/08 02:51:21;;;;;;;0.30;0.30;;;5.30;99.90;;;;;;5052595;28;20175;-78
2021/04/08 02:53:59;;;;;;;0.77;0.77;;;5.20;99.90;;;;;;5052623;28;20167;-78
2021/04/08 02:56:29;;;;;;;2.55;2.05;;;5.20;99.90;;;;;;5052415;28;20179;-78
2021/04/08 02:59:04;;;;;;;0.43;0.43;;;5.30;99.90;;;;;;5052515;28;20160;-76
2021/04/08 03:01:31;;;;;;;0.65;0.65;;;5.30;99.90;;;;;;5051177;28;20604;-77
2021/04/08 03:03:59;;;;;;;3.05;1.95;;;5.10;99.90;;;;;;5052609;28;20163;-76
2021/04/08 03:06:26;;;;;;;0.30;0.30;;;5.10;99.90;;;;;;5052598;28;20233;-75
2021/04/08 03:08:55;;;;;;;0.40;0.40;;;5.30;99.90;;;;;;5052360;28;20300;-76
2021/04/08 03:11:25;;;;;;;0.90;0.80;;;5.30;99.90;;;;;;5052363;28;20171;-75
2021/04/08 03:13:55;;;;;;;0.90;0.90;;;5.30;99.90;;;;;;5051082;28;20713;-75
2021/04/08 03:16:24;;;;;;;1.48;1.38;;;5.40;99.90;;;;;;5052250;28;20199;-76
2021/04/08 03:18:54;;;;;;;7.07;1.77;;;5.60;99.90;;;;;;5056106;28;20159;-75
2021/04/08 03:21:24;;;;;;;0.40;0.40;;;5.80;99.90;;;;;;5056055;28;20172;-76
2021/04/08 03:23:52;;;;;;;0.80;0.68;;;5.90;99.90;;;;;;5055935;28;20220;-76
2021/04/08 03:26:17;;;;;;;10.60;0.55;;;5.90;99.90;;;;;;5055829;28;20187;-75
2021/04/08 03:28:44;;;;;;;0.80;0.75;;;6.10;99.90;;;;;;5056119;28;20164;-76
2021/04/08 03:31:12;;;;;;;0.40;0.40;;;6.00;99.90;;;;;;5055797;28;20348;-76
2021/04/08 03:33:39;;;;;;;1.17;0.93;;;5.80;99.90;;;;;;5054397;28;20160;-76
2021/04/08 03:36:05;;;;;;;0.30;0.30;;;5.90;99.90;;;;;;5055596;28;20180;-76
2021/04/08 03:38:31;;;;;;;0.30;0.30;;;6.00;99.90;;;;;;5055681;28;20250;-76
2021/04/08 03:40:58;;;;;;;0.63;0.63;;;6.20;99.90;;;;;;5054358;28;20190;-76
2021/04/08 03:43:25;;;;;;;1.13;1.13;;;5.90;99.90;;;;;;5055349;28;20234;-76
2021/04/08 03:45:51;;;;;;;0.47;0.47;;;5.70;99.90;;;;;;5055380;28;20187;-77
2021/04/08 03:48:18;;;;;;;0.60;0.60;;;5.70;99.90;;;;;;5055422;28;20239;-76
2021/04/08 03:50:46;;;;;;;0.40;0.40;;;5.80;99.90;;;;;;5055263;28;20202;-75
2021/04/08 03:53:13;;;;;;;0.45;0.45;;;5.70;99.90;;;;;;5055345;28;20235;-76
2021/04/08 03:55:40;;;;;;;0.93;0.93;;;5.90;99.90;;;;;;5055312;28;20206;-76
2021/04/08 03:58:10;;;;;;;4.03;1.73;;;5.70;99.90;;;;;;5055169;28;20171;-76
2021/04/08 04:00:37;;;;;;;0.38;0.38;;;5.80;99.90;;;;;;5055223;28;20233;-76
2021/04/08 04:03:04;;;;;;;4.68;2.80;;;5.60;99.90;;;;;;5054962;28;20246;-75
2021/04/08 04:05:30;;;;;;;0.38;0.38;;;5.60;99.90;;;;;;5055133;28;20179;-75
2021/04/08 04:07:56;;;;;;;7.78;1.25;;;5.30;99.90;;;;;;5054911;28;20206;-76
2021/04/08 04:10:22;;;;;;;1.20;1.10;;;5.30;99.90;;;;;;5054836;28;20278;-76
2021/04/08 04:12:53;;;;;;;2.03;1.85;;;5.30;99.90;;;;;;5055163;28;20635;-76
2021/04/08 04:15:20;;;;;;;1.45;0.98;;;5.60;99.90;;;;;;5054906;28;20155;-76
2021/04/08 04:17:46;;;;;;;0.77;0.77;;;5.50;99.90;;;;;;5054608;28;20215;-77
2021/04/08 04:20:12;;;;;;;6.25;1.98;;;5.50;99.90;;;;;;5054701;28;20171;-76
2021/04/08 04:22:39;;;;;;;0.43;0.43;;;5.50;99.90;;;;;;5054913;28;20160;-76
2021/04/08 04:25:06;;;;;;;0.95;0.95;;;5.60;99.90;;;;;;5054745;28;20157;-76
2021/04/08 04:27:32;;;;;;;0.47;0.47;;;5.60;99.90;;;;;;5053180;28;20195;-76
2021/04/08 04:29:57;;;;;;;0.68;0.68;;;5.50;99.90;;;;;;5053561;28;20554;-75
2021/04/08 04:32:23;;;;;;;1.67;1.58;;;5.50;99.90;;;;;;5054503;28;20166;-76
2021/04/08 04:34:49;;;;;;;3.33;2.63;;;5.40;99.90;;;;;;5054622;28;20175;-77
2021/04/08 04:37:14;;;;;;;1.65;1.55;;;5.00;99.90;;;;;;5054504;28;20576;-78
2021/04/08 04:39:40;;;;;;;0.40;0.40;;;5.00;99.90;;;;;;5054394;28;20920;-76
2021/04/08 04:42:07;;;;;;;5.38;1.35;;;5.10;99.90;;;;;;5054241;28;20215;-75
2021/04/08 04:44:33;;;;;;;0.35;0.35;;;5.30;99.90;;;;;;5054109;28;20220;-75
2021/04/08 04:46:59;;;;;;;3.58;1.38;;;5.60;99.90;;;;;;5054212;28;20187;-78
2021/04/08 04:49:25;;;;;;;0.88;0.88;;;5.70;99.90;;;;;;5053918;28;20285;-76
2021/04/08 04:51:51;;;;;;;0.40;0.40;;;5.60;99.90;;;;;;5054265;28;20610;-78
2021/04/08 04:54:17;;;;;;;1.83;1.25;;;5.50;99.90;;;;;;5052855;28;20334;-78
2021/04/08 04:56:43;;;;;;;0.30;0.30;;;5.60;99.90;;;;;;5053919;28;20266;-76
2021/04/08 04:59:08;;;;;;;13.77;1.30;;;5.30;99.90;;;;;;5053936;28;20174;-76
2021/04/08 05:01:34;;;;;;;1.55;1.55;;;5.40;99.90;;;;;;5053609;28;20164;-78
2021/04/08 05:04:00;;;;;;;0.60;0.60;;;5.30;99.90;;;;;;5053812;28;20171;-77
2021/04/08 05:06:25;;;;;;;0.50;0.50;;;5.70;99.90;;;;;;5053666;28;20187;-78
2021/04/08 05:08:51;;;;;;;0.50;0.50;;;5.90;99.90;;;;;;5053669;28;20202;-76
2021/04/08 05:11:17;;;;;;;0.43;0.43;;;6.00;99.90;;;;;;5053673;28;20629;-78
2021/04/08 05:13:42;;;;;;;0.30;0.30;;;6.20;99.90;;;;;;5052502;28;20185;-76
2021/04/08 05:16:08;;;;;;;0.40;0.40;;;6.10;99.90;;;;;;5053599;28;20568;-76
2021/04/08 05:18:34;;;;;;;0.77;0.77;;;6.10;99.90;;;;;;5053455;28;20158;-76
2021/04/08 05:20:59;;;;;;;11.18;0.70;;;6.00;99.90;;;;;;5053535;28;20167;-76
2021/04/08 05:23:25;;;;;;;0.40;0.40;;;6.10;99.90;;;;;;5053359;28;20611;-76
2021/04/08 05:25:51;;;;;;;0.73;0.73;;;6.20;99.90;;;;;;5053419;28;20205;-76
2021/04/08 05:28:17;;;;;;;0.98;0.98;;;6.10;99.90;;;;;;5053418;28;20168;-77
2021/04/08 05:30:43;;;;;;;1.38;1.27;;;6.00;99.90;;;;;;5053285;28;20286;-77
2021/04/08 05:33:09;;;;;;;1.15;1.15;;;6.00;99.90;;;;;;5053404;28;20259;-77
2021/04/08 05:35:35;;;;;;;12.93;1.10;;;6.10;99.90;;;;;;5051909;28;20194;-76
2021/04/08 05:38:00;;;;;;;0.38;0.38;;;6.20;99.90;;;;;;5053402;28;20167;-76
2021/04/08 05:40:26;;;;;;;0.50;0.50;;;6.00;99.90;;;;;;5052906;28;20167;-77
2021/04/08 05:42:52;;;;;;;0.70;0.70;;;5.90;99.90;;;;;;5053033;28;20231;-76
2021/04/08 05:45:19;;;;;;;1.20;1.15;;;5.80;99.90;;;;;;5051839;28;20532;-76
2021/04/08 05:47:46;;;;;;;0.40;0.40;;;5.80;99.90;;;;;;5051568;28;20174;-77
2021/04/08 05:50:13;;;;;;;1.38;1.27;;;5.90;99.90;;;;;;5052512;28;20302;-77
2021/04/08 05:52:39;;;;;;;1.08;1.08;;;5.90;99.90;;;;;;5052929;28;20606;-76
2021/04/08 05:55:06;;;;;;;0.93;0.93;;;5.90;99.90;;;;;;5053138;28;20159;-77
2021/04/08 05:57:32;;;;;;;0.50;0.50;;;5.80;99.90;;;;;;5052729;28;20693;-77
2021/04/08 05:59:58;;;;;;;0.85;0.85;;;5.70;99.90;;;;;;5053078;28;20164;-76
2021/04/08 06:02:23;;;;;;;1.17;1.02;;;5.90;99.90;;;;;;5052815;28;20584;-77
2021/04/08 06:04:49;;;;;;;1.85;0.90;;;5.90;99.90;;;;;;5053025;28;20171;-75
2021/04/08 06:07:15;;;;;;;0.68;0.68;;;5.60;99.90;;;;;;5052749;28;20529;-76
2021/04/08 06:09:40;;;;;;;4.43;2.08;;;5.80;99.90;;;;;;5052705;28;20220;-75
2021/04/08 06:12:06;;;;;;;0.30;0.30;;;5.90;99.90;;;;;;5051557;28;20175;-75
2021/04/08 06:14:33;;;;;;;0.30;0.30;;;6.10;99.90;;;;;;5052780;28;20174;-75
2021/04/08 06:16:59;;;;;;;0.70;0.70;;;6.30;99.90;;;;;;5052476;28;20211;-75
2021/04/08 06:19:25;;;;;;;0.80;0.80;;;6.40;99.90;;;;;;5052729;28;20191;-76
2021/04/08 06:21:50;;;;;;;0.50;0.50;;;6.50;99.90;;;;;;5052613;28;20209;-76
2021/04/08 06:24:16;;;;;;;0.70;0.70;;;6.30;99.90;;;;;;5052637;28;20630;-76
2021/04/08 06:26:42;;;;;;;1.27;1.20;;;6.30;99.90;;;;;;5052468;28;20191;-75
2021/04/08 06:29:07;;;;;;;0.93;0.93;;;6.40;99.90;;;;;;5052641;28;20187;-76
2021/04/08 06:31:34;;;;;;;0.88;0.80;;;6.60;99.90;;;;;;5052587;28;20710;-75
2021/04/08 06:34:00;;;;;;;1.98;1.58;;;6.60;99.90;;;;;;5052380;28;20155;-76
2021/04/08 06:36:26;;;;;;;0.88;0.88;;;6.80;99.90;;;;;;5052304;28;20245;-78
2021/04/08 06:38:51;;;;;;;1.25;1.15;;;6.80;99.90;;;;;;5052620;28;20522;-78
2021/04/08 06:41:17;;;;;;;0.85;0.85;;;6.70;99.90;;;;;;5052738;28;20168;-78
2021/04/08 06:43:45;;;;;;;0.28;0.28;;;7.00;99.90;;;;;;5052295;28;20227;-78
2021/04/08 06:46:19;;;;;;;3.25;1.15;;;7.00;99.90;;;;;;5052367;28;20183;-78
2021/04/08 06:49:01;;;;;;;0.40;0.40;;;6.70;99.90;;;;;;5052368;28;20159;-78
2021/04/08 06:51:32;;;;;;;8.90;3.53;;;7.00;99.90;;;;;;5052745;28;20647;-77
2021/04/08 06:54:04;;;;;;;0.82;0.82;;;7.10;99.90;;;;;;5056415;28;20569;-75
2021/04/08 06:56:30;;;;;;;1.08;0.98;;;7.10;99.90;;;;;;5056161;28;20254;-77
2021/04/08 06:58:56;;;;;;;0.43;0.43;;;7.00;99.90;;;;;;5055839;28;20626;-74
2021/04/08 07:01:22;;;;;;;0.65;0.65;;;7.20;99.90;;;;;;5055857;28;20174;-77
2021/04/08 07:03:51;;;;;;;0.68;0.68;;;7.30;99.90;;;;;;5055610;28;20202;-78
2021/04/08 07:06:17;;;;;;;0.47;0.47;;;7.40;99.90;;;;;;5054769;28;20241;-77
2021/04/08 07:08:44;;;;;;;1.00;0.95;;;7.40;99.90;;;;;;5056001;28;20171;-77
2021/04/08 07:11:10;;;;;;;3.00;1.45;;;7.20;99.90;;;;;;5055847;28;20167;-77
2021/04/08 07:13:35;;;;;;;1.02;0.93;;;7.30;99.90;;;;;;5056108;28;20639;-78
2021/04/08 07:16:03;;;;;;;0.65;0.65;;;7.40;99.90;;;;;;5055705;28;20217;-77
2021/04/08 07:18:29;;;;;;;0.65;0.65;;;7.30;99.90;;;;;;5055439;28;20494;-77
2021/04/08 07:20:56;;;;;;;17.38;1.23;;;7.20;99.90;;;;;;5055555;28;20184;-78
2021/04/08 07:23:22;;;;;;;1.02;1.02;;;7.20;99.90;;;;;;5055632;28;20179;-74
2021/04/08 07:26:04;;;;;;;7.13;1.75;;;7.10;99.90;;;;;;5055182;28;20179;-78
2021/04/08 07:28:39;;;;;;;0.50;0.50;;;7.00;99.90;;;;;;5055755;28;20167;-78
2021/04/08 07:31:23;;;;;;;1.23;1.17;;;7.30;99.90;;;;;;5055569;28;20186;-77
2021/04/08 07:33:51;;;;;;;0.80;0.80;;;7.60;99.90;;;;;;5055430;28;20167;-74
2021/04/08 07:36:34;;;;;;;0.77;0.77;;;7.90;99.90;;;;;;5055543;28;20183;-73
2021/04/08 07:39:05;;;;;;;2.00;1.58;;;8.10;99.90;;;;;;5055705;28;20186;-74
2021/04/08 07:41:33;;;;;;;0.70;0.70;;;8.00;99.90;;;;;;5055265;28;20168;-75
2021/04/08 07:44:10;;;;;;;1.30;1.17;;;7.90;99.90;;;;;;5055372;28;20179;-75
2021/04/08 07:46:43;;;;;;;8.88;1.77;;;8.10;99.90;;;;;;5053686;28;20312;-75
2021/04/08 07:49:31;;;;;;;18.05;1.75;;;8.20;99.90;;;;;;5054416;28;20194;-75
2021/04/08 07:52:13;;;;;;;1.58;1.48;;;8.50;99.90;;;;;;5054113;28;20170;-74
2021/04/08 07:54:39;;;;;;;1.77;0.57;;;8.70;99.90;;;;;;5055135;28;20160;-74
2021/04/08 07:57:05;;;;;;;1.45;1.27;;;8.70;99.90;;;;;;5055015;28;20274;-74
2021/04/08 07:59:30;;;;;;;0.60;0.60;;;9.00;99.90;;;;;;5053414;28;20499;-76
2021/04/08 08:02:06;;;;;;;0.30;0.30;;;9.20;99.90;;;;;;5055323;28;20171;-77
2021/04/08 08:04:31;;;;;;;0.55;0.55;;;9.10;99.90;;;;;;5054836;28;20166;-76
2021/04/08 08:06:58;;;;;;;0.40;0.40;;;9.00;99.90;;;;;;5054822;28;20187;-76
2021/04/08 08:09:25;;;;;;;0.93;0.93;;;9.20;99.90;;;;;;5053458;28;20194;-76
2021/04/08 08:11:52;;;;;;;0.90;0.90;;;9.00;99.90;;;;;;5055415;28;20172;-76
2021/04/08 08:14:31;;;;;;;0.90;0.90;;;9.00;99.90;;;;;;5054999;28;20178;-76
2021/04/08 08:17:05;;;;;;;3.03;1.30;;;8.90;99.90;;;;;;5053055;28;20198;-76
2021/04/08 08:19:31;;;;;;;3.42;1.55;;;9.10;99.90;;;;;;5054751;28;20158;-76
2021/04/08 08:21:57;;;;;;;0.80;0.80;;;9.20;99.90;;;;;;5054655;28;20494;-78
2021/04/08 08:24:23;;;;;;;13.60;1.00;;;9.10;99.90;;;;;;5054407;28;20645;-77
2021/04/08 08:26:50;;;;;;;0.45;0.45;;;9.20;99.90;;;;;;5054634;28;20600;-76
2021/04/08 08:29:22;;;;;;;3.63;1.40;;;9.20;99.90;;;;;;5054445;28;20186;-78
2021/04/08 08:31:55;;;;;;;2.78;1.23;;;9.40;99.90;;;;;;5054444;28;20159;-76
2021/04/08 08:34:22;;;;;;;19.10;1.23;;;9.50;99.90;;;;;;5054055;28;20168;-75
2021/04/08 08:36:56;;;;;;;0.55;0.55;;;9.50;99.90;;;;;;5053918;28;20179;-75
2021/04/08 08:39:42;;;;;;;0.70;0.70;;;9.50;99.90;;;;;;5052490;28;20213;-75
2021/04/08 08:42:13;;;;;;;1.27;1.17;;;9.10;99.90;;;;;;5053591;28;20225;-78
2021/04/08 08:44:40;;;;;;;0.55;0.55;;;9.30;99.90;;;;;;5052666;28;20171;-76
2021/04/08 08:47:11;;;;;;;1.00;0.90;;;9.50;99.90;;;;;;5053774;28;20233;-77
2021/04/08 08:49:42;;;;;;;10.10;1.13;;;9.80;99.90;;;;;;5053610;28;20187;-77
2021/04/08 08:52:10;;;;;;;0.73;0.70;;;10.10;99.90;;;;;;5053842;28;20247;-78
2021/04/08 08:54:37;;;;;;;11.68;1.88;;;10.20;99.90;;;;;;5053660;28;20167;-76
2021/04/08 08:57:05;;;;;;;1.10;1.02;;;10.50;99.90;;;;;;5054109;28;20205;-75
2021/04/08 08:59:31;;;;;;;5.70;1.42;;;10.60;99.90;;;;;;5064238;28;20733;-76
2021/04/08 09:04:46;;;;;;;1.13;1.02;;;10.00;99.90;;;;;;5044438;28;20183;-79
2021/04/08 09:07:14;;;;;;;0.40;0.40;;;9.80;99.90;;;;;;5043596;28;20205;-78
2021/04/08 09:09:49;;;;;;;0.63;0.60;;;9.40;99.90;;;;;;5065583;28;20202;-79
2021/04/08 09:12:18;;;;;;;2.08;1.00;;;9.40;99.90;;;;;;5071581;28;20257;-79
2021/04/08 09:14:45;;;;;;;1.23;1.00;;;9.60;99.90;;;;;;5072952;28;20167;-79
2021/04/08 09:17:11;;;;;;;0.70;0.60;;;9.80;99.90;;;;;;5072139;28;20187;-79
2021/04/08 09:19:38;;;;;;;0.90;0.90;;;10.00;99.90;;;;;;5073460;28;20163;-78
2021/04/08 09:22:09;;;;;;;1.13;1.02;;;10.40;99.90;;;;;;5073381;28;20150;-78
2021/04/08 09:24:38;;;;;;;6.40;1.05;;;10.50;99.90;;;;;;5073388;28;20173;-77
2021/04/08 09:27:06;;;;;;;1.60;1.50;;;10.40;99.90;;;;;;5073395;28;20185;-76
2021/04/08 09:29:35;;;;;;;0.57;0.57;;;10.70;99.90;;;;;;5065940;28;20191;-77
2021/04/08 09:32:25;;;;;;;1.10;1.10;;;10.90;99.90;;;;;;5061442;28;20170;-76
2021/04/08 09:35:19;;;;;;;0.82;0.82;;;10.60;99.90;;;;;;5058299;28;20255;-77
2021/04/08 09:37:48;;;;;;;2.15;0.90;;;10.50;99.90;;;;;;5056801;28;20174;-77
2021/04/08 09:40:31;;;;;;;2.70;1.25;;;10.50;99.90;;;;;;5065304;28;20206;-77
2021/04/08 09:43:00;;;;;;;1.60;1.15;;;10.60;99.90;;;;;;5072777;28;20222;-76
2021/04/08 09:45:27;;;;;;;2.83;1.25;;;10.30;99.90;;;;;;5072768;28;20157;-77
2021/04/08 09:48:21;;;;;;;0.38;0.38;;;10.60;99.50;;;;;;5073226;28;20736;-76
2021/04/08 09:50:56;;;;;;;0.47;0.47;;;10.80;97.90;;;;;;5072640;28;20222;-79
2021/04/08 09:53:27;;;;;;;0.98;0.95;;;10.80;97.50;;;;;;5071826;28;20169;-76
2021/04/08 09:55:53;;;;;;;1.63;1.13;;;10.90;97.60;;;;;;5071590;28;20194;-76
2021/04/08 09:58:27;;;;;;;0.40;0.40;;;10.80;97.70;;;;;;5072629;28;20162;-76
2021/04/08 10:00:55;;;;;;;0.80;0.80;;;10.90;97.40;;;;;;5072755;28;20185;-77
2021/04/08 10:03:31;;;;;;;0.85;0.85;;;11.00;98.20;;;;;;5071154;28;20174;-77
2021/04/08 10:05:57;;;;;;;0.98;0.95;;;11.10;96.20;;;;;;5072849;28;20274;-77
2021/04/08 10:08:24;;;;;;;0.43;0.43;;;11.20;95.10;;;;;;5072843;28;20216;-77
2021/04/08 10:10:51;;;;;;;1.70;0.90;;;11.20;93.80;;;;;;5072915;28;20202;-76
2021/04/08 10:13:30;;;;;;;1.75;1.05;;;11.00;93.00;;;;;;5072841;28;20665;-78
2021/04/08 10:16:01;;;;;;;0.70;0.70;;;10.50;92.60;;;;;;5072466;28;20735;-77
2021/04/08 10:18:34;;;;;;;0.60;0.60;;;10.60;93.10;;;;;;5072619;28;20165;-76
2021/04/08 10:21:16;;;;;;;0.52;0.52;;;10.50;93.80;;;;;;5071464;28;20163;-76
2021/04/08 10:23:47;;;;;;;0.82;0.82;;;10.70;93.60;;;;;;5072806;28;20165;-76
2021/04/08 10:26:17;;;;;;;0.50;0.50;;;10.80;93.40;;;;;;5072332;28;20187;-77
2021/04/08 10:28:46;;;;;;;1.65;1.40;;;10.90;93.60;;;;;;5076551;28;20644;-77
2021/04/08 10:31:24;;;;;;;0.75;0.75;;;11.00;92.60;;;;;;5076646;28;20633;-77
2021/04/08 10:33:55;;;;;;;1.05;0.60;;;11.60;92.00;;;;;;5075334;28;20170;-76
2021/04/08 10:36:42;;;;;;;0.85;0.85;;;11.90;91.40;;;;;;5076669;28;20186;-79
2021/04/08 10:39:28;;;;;;;2.80;1.50;;;12.00;90.60;;;;;;5076758;28;20155;-77
2021/04/08 10:41:57;;;;;;;1.73;1.63;;;11.70;91.00;;;;;;5076752;28;20174;-77
2021/04/08 10:44:39;;;;;;;1.30;0.85;;;11.60;91.20;;;;;;5076213;28;20629;-77
2021/04/08 10:47:19;;;;;;;0.60;0.60;;;11.50;91.50;;;;;;5075044;28;20236;-77
2021/04/08 10:49:57;;;;;;;13.85;1.25;;;11.80;91.40;;;;;;5076317;28;20661;-77
2021/04/08 10:52:29;;;;;;;0.75;0.73;;;11.60;91.40;;;;;;5076423;28;20234;-77
2021/04/08 10:54:59;;;;;;;1.08;0.98;;;11.60;90.70;;;;;;5075955;28;20166;-77
2021/04/08 10:57:27;;;;;;;0.93;0.93;;;11.30;91.40;;;;;;5076284;28;20198;-77
2021/04/08 10:59:53;;;;;;;0.70;0.70;;;11.50;91.20;;;;;;5075879;28;20257;-77
2021/04/08 11:02:28;;;;;;;0.90;0.90;;;11.40;91.90;;;;;;5074850;28;20219;-76
2021/04/08 11:05:01;;;;;;;4.03;0.60;;;11.30;91.00;;;;;;5075997;28;20215;-77
2021/04/08 11:07:27;;;;;;;23.25;1.95;;;11.40;91.30;;;;;;5074828;28;20182;-77
2021/04/08 11:09:54;;;;;;;1.00;1.00;;;11.50;90.90;;;;;;5068902;28;20584;-77
2021/04/08 11:12:23;;;;;;;5.43;0.80;;;11.70;90.10;;;;;;5067848;28;20183;-76
2021/04/08 11:14:57;;;;;;;4.28;1.25;;;11.90;89.40;;;;;;5055382;28;20213;-76
2021/04/08 11:17:24;;;;;;;1.05;0.95;;;11.50;89.20;;;;;;5055117;28;20187;-77
2021/04/08 11:19:52;;;;;;;1.33;1.23;;;11.50;90.30;;;;;;5055643;28;20170;-79
2021/04/08 11:22:20;;;;;;;1.42;1.33;;;11.50;90.30;;;;;;5063697;28;20572;-76
2021/04/08 11:24:49;;;;;;;0.95;0.95;;;11.50;90.80;;;;;;5073543;28;20175;-77
2021/04/08 11:27:36;;;;;;;0.90;0.90;;;11.60;91.10;;;;;;5065447;28;20191;-78
2021/04/08 11:30:03;;;;;;;1.38;1.10;;;11.20;90.80;;;;;;5047804;28;20223;-78
2021/04/08 11:32:28;;;;;;;1.83;1.70;;;11.30;90.40;;;;;;5034376;28;20207;-79
2021/04/08 11:34:58;;;;;;;0.50;0.50;;;11.20;90.60;;;;;;5034814;28;20168;-79
2021/04/08 11:37:36;;;;;;;1.55;1.42;;;11.10;90.80;;;;;;5032884;28;20233;-77
2021/04/08 11:40:07;;;;;;;0.95;0.95;;;11.30;90.60;;;;;;5035490;28;20167;-79
2021/04/08 11:42:39;;;;;;;2.85;1.13;;;11.30;90.50;;;;;;5035270;28;20298;-78
2021/04/08 11:47:38;;;;;;;0.77;0.77;;;11.50;90.70;;;;;;5056310;23;20239;-78
2021/04/08 11:50:11;;;;;;;3.60;1.48;;;11.20;90.20;;;;;;5034726;28;20257;-78
2021/04/08 11:52:36;;;;;;;0.70;0.70;;;11.20;90.60;;;;;;5034050;28;20222;-78
2021/04/08 11:55:11;;;;;;;1.20;0.98;;;11.10;90.90;;;;;;5034549;28;20172;-76
2021/04/08 11:57:37;;;;;;;6.25;1.40;;;11.10;90.20;;;;;;5067202;28;20167;-79
2021/04/08 12:00:12;;;;;;;1.00;1.00;;;11.40;90.30;;;;;;5067043;28;20657;-77
2021/04/08 12:02:40;;;;;;;1.13;1.13;;;11.60;90.00;;;;;;5034402;28;20179;-75
2021/04/08 12:05:09;;;;;;;1.25;1.15;;;11.70;90.00;;;;;;5035067;28;20171;-77
2021/04/08 12:07:46;;;;;;;2.78;1.70;;;11.40;90.00;;;;;;5034954;28;20642;-75
2021/04/08 12:10:32;;;;;;;1.27;1.23;;;11.30;90.30;;;;;;5034211;28;20531;-78
2021/04/08 12:13:01;;;;;;;2.30;1.48;;;11.00;90.20;;;;;;5031036;28;20635;-77
2021/04/08 12:15:42;;;;;;;3.85;2.05;;;10.90;90.60;;;;;;5033146;28;20192;-76
2021/04/08 12:18:24;;;;;;;0.80;0.80;;;10.70;91.10;;;;;;5032680;28;20255;-77
2021/04/08 12:20:52;;;;;;;4.03;1.15;;;10.60;91.40;;;;;;5032003;28;20175;-76
2021/04/08 12:23:20;;;;;;;0.93;0.93;;;10.50;91.20;;;;;;5033413;28;20234;-77
2021/04/08 12:25:52;;;;;;;0.70;0.70;;;10.50;91.70;;;;;;5032884;28;20538;-80
2021/04/08 12:28:20;;;;;;;0.90;0.90;;;10.40;91.20;;;;;;5032322;28;20184;-78
2021/04/08 12:30:47;;;;;;;3.40;1.45;;;10.50;91.30;;;;;;5033466;28;20683;-78
2021/04/08 12:33:17;;;;;;;2.70;1.63;;;10.60;92.00;;;;;;5033235;28;21111;-77
2021/04/08 12:35:45;;;;;;;1.13;0.95;;;10.70;91.60;;;;;;5033549;28;20183;-78
2021/04/08 12:38:10;;;;;;;2.15;1.38;;;10.70;92.20;;;;;;5033512;28;20168;-84
2021/04/08 12:40:36;;;;;;;2.10;1.27;;;10.70;91.50;;;;;;5032181;28;20576;-76
2021/04/08 12:43:04;;;;;;;1.52;1.42;;;10.70;91.50;;;;;;5032663;28;20198;-83
2021/04/08 12:45:30;;;;;;;1.60;1.50;;;10.80;91.70;;;;;;5031557;28;20206;-80
2021/04/08 12:47:56;;;;;;;1.08;1.08;;;10.80;91.30;;;;;;5031201;28;20563;-81
2021/04/08 12:50:22;;;;;;;1.63;1.52;;;10.80;91.70;;;;;;5030853;28;20203;-79
2021/04/08 12:52:48;;;;;;;1.15;1.05;;;10.70;91.30;;;;;;5032954;28;20293;-80
2021/04/08 12:55:14;;;;;;;1.40;1.30;;;10.70;91.10;;;;;;5034866;28;20156;-78
2021/04/08 12:57:44;;;;;;;3.80;1.20;;;10.60;92.00;;;;;;5032925;28;20650;-79
2021/04/08 13:00:11;;;;;;;1.40;1.33;;;10.60;92.10;;;;;;5033007;28;20637;-79
2021/04/08 13:02:37;;;;;;;1.80;1.63;;;10.70;91.20;;;;;;5032621;28;20164;-79
2021/04/08 13:05:05;;;;;;;1.67;1.58;;;10.80;91.90;;;;;;5026802;28;20480;-78
2021/04/08 13:07:31;;;;;;;0.93;0.52;;;11.00;91.40;;;;;;5033528;28;20207;-79
2021/04/08 13:09:57;;;;;;;1.17;1.08;;;10.90;91.40;;;;;;5033557;28;20285;-79